KELM/ELM METAR and TAF weather

Enter ICAO airport designator
Station Type Date Time Source
KELM METAR 2020/09/27 02:53 UTC NOAA

KELM 270253Z AUTO VRB04KT 10SM CLR 17/14 A2998 RMK AO2 SLP149 T01670144 50002


Station Type Date Time Source
KELM Decoded METAR 2020/09/27 02:53 UTC NOAA

ELMIRA COUNTY AIRPORT, NY, United States (KELM) 42-10N 76-54W 302M
Sep 26, 2020 - 10:53 PM EDT / 2020.09.27 0253 UTC
Wind: Variable at 5 MPH (4 KT):0
Visibility: 10 mile(s):0
Sky conditions: clear
Temperature: 62.1 F (16.7 C)
Dew Point: 57.9 F (14.4 C)
Relative Humidity: 86%
Pressure (altimeter): 29.98 in. Hg (1015 hPa)
Pressure tendency: 0.01 inches (0.2 hPa) higher than three hours ago
ob: KELM 270253Z AUTO VRB04KT 10SM CLR 17/14 A2998 RMK AO2 SLP149 T01670144 50002
cycle: 3

Station Type Date Time Source
KELM TAF 2020/09/26 20:54 UTC NOAA

TAF
AMD KELM 261951Z 2620/2718 19010KT P6SM BKN040
FM270700 VRB04KT P6SM BKN004
FM271600 19010G18KT P6SM SCT240

Example: see airport list